createdAt,value
2022-07-31T00:00:18.468Z,22.22
2022-07-31T00:02:45.241Z,22.22
2022-07-31T00:05:12.385Z,22.23
2022-07-31T00:07:40.122Z,22.24
2022-07-31T00:10:07.735Z,22.24
2022-07-31T00:12:34.229Z,22.24
2022-07-31T00:15:00.980Z,22.24
2022-07-31T00:17:27.467Z,22.23
2022-07-31T00:19:54.092Z,22.23
2022-07-31T00:22:20.563Z,22.18
2022-07-31T00:24:48.286Z,22.15
2022-07-31T00:27:14.937Z,22.17
2022-07-31T00:29:41.492Z,22.19
2022-07-31T00:32:07.968Z,22.17
2022-07-31T00:34:34.426Z,22.18
2022-07-31T00:37:01.306Z,22.17
2022-07-31T00:39:27.943Z,22.16
2022-07-31T00:41:55.817Z,22.15
2022-07-31T00:44:22.318Z,22.13
2022-07-31T00:46:49.682Z,22.12
2022-07-31T00:49:16.347Z,22.15
2022-07-31T00:51:42.916Z,22.14
2022-07-31T00:54:10.214Z,22.13
2022-07-31T00:56:43.420Z,22.12
2022-07-31T00:59:11.175Z,22.12
2022-07-31T01:01:37.738Z,22.14
2022-07-31T01:04:04.343Z,22.12
2022-07-31T01:06:31.902Z,22.13
2022-07-31T01:08:58.455Z,22.13
2022-07-31T01:11:33.698Z,22.14
2022-07-31T01:14:05.390Z,22.12
2022-07-31T01:16:36.751Z,22.12
2022-07-31T01:19:11.732Z,22.11
2022-07-31T01:21:49.146Z,22.12
2022-07-31T01:24:36.283Z,22.11
2022-07-31T01:27:10.525Z,22.08
2022-07-31T01:29:44.158Z,22.09
2022-07-31T01:32:15.541Z,22.11
2022-07-31T01:34:46.492Z,22.11
2022-07-31T01:37:17.630Z,22.09
2022-07-31T01:39:49.425Z,22.09
2022-07-31T01:42:18.247Z,22.06
2022-07-31T01:44:51.013Z,22.08
2022-07-31T01:47:20.455Z,22.08
2022-07-31T01:49:50.062Z,22.08
2022-07-31T01:52:17.748Z,22.03
2022-07-31T01:54:46.542Z,22.07
2022-07-31T01:57:18.538Z,22.05
2022-07-31T01:59:49.363Z,22.06
2022-07-31T02:02:16.969Z,22.06
2022-07-31T02:04:44.527Z,22.03
2022-07-31T02:07:11.015Z,22.05
2022-07-31T02:09:37.845Z,22.05
2022-07-31T02:12:33.451Z,22.04
2022-07-31T02:15:05.904Z,22.04
2022-07-31T02:17:33.549Z,22.00
2022-07-31T02:20:01.669Z,21.99
2022-07-31T02:22:28.302Z,22.01
2022-07-31T02:24:54.984Z,22.03
2022-07-31T02:27:56.959Z,22.01
2022-07-31T02:30:11.318Z,22.01
2022-07-31T02:32:39.169Z,21.99
2022-07-31T02:35:07.678Z,21.96
2022-07-31T02:37:37.331Z,21.98
2022-07-31T02:40:06.405Z,21.92
2022-07-31T02:42:33.670Z,21.92
2022-07-31T02:45:01.836Z,21.92
2022-07-31T02:47:29.982Z,21.91
2022-07-31T02:49:57.457Z,21.85
2022-07-31T02:52:24.590Z,21.77
2022-07-31T02:54:51.754Z,21.83
2022-07-31T02:57:18.405Z,21.79
2022-07-31T02:59:44.873Z,21.79
2022-07-31T03:02:11.344Z,21.82
2022-07-31T03:04:39.103Z,21.87
2022-07-31T03:07:05.587Z,21.88
2022-07-31T03:09:32.035Z,21.90
2022-07-31T03:12:04.653Z,21.92
2022-07-31T03:14:33.808Z,21.90
2022-07-31T03:17:01.320Z,21.89
2022-07-31T03:19:28.624Z,21.88
2022-07-31T03:21:56.476Z,21.89
2022-07-31T03:24:23.365Z,21.90
2022-07-31T03:26:50.176Z,21.90
2022-07-31T03:29:38.864Z,21.89
2022-07-31T03:32:03.471Z,21.89
2022-07-31T03:34:30.098Z,21.89
2022-07-31T03:36:57.882Z,21.91
2022-07-31T03:39:24.742Z,21.89
2022-07-31T03:41:52.113Z,21.91
2022-07-31T03:44:19.534Z,21.91
2022-07-31T03:46:46.317Z,21.87
2022-07-31T03:49:13.907Z,21.89
2022-07-31T03:51:40.513Z,21.90
2022-07-31T03:54:08.470Z,21.91
2022-07-31T03:56:36.326Z,21.90
2022-07-31T03:59:03.764Z,21.90
2022-07-31T04:01:57.977Z,21.90
2022-07-31T04:04:18.345Z,21.89
2022-07-31T04:06:44.915Z,21.90
2022-07-31T04:09:18.696Z,21.90
2022-07-31T04:11:45.545Z,21.91
2022-07-31T04:14:12.046Z,21.90
2022-07-31T04:16:38.534Z,21.90
2022-07-31T04:19:05.083Z,21.90
2022-07-31T04:21:31.557Z,21.86
2022-07-31T04:23:58.138Z,21.88
2022-07-31T04:26:26.530Z,21.87
2022-07-31T04:28:53.186Z,21.89
2022-07-31T04:31:19.672Z,21.87
2022-07-31T04:33:47.952Z,21.88
2022-07-31T04:36:29.402Z,21.89
2022-07-31T04:38:57.408Z,21.88
2022-07-31T04:41:23.844Z,21.88
2022-07-31T04:43:51.579Z,21.87
2022-07-31T04:46:18.126Z,21.88
2022-07-31T04:48:44.979Z,21.89
2022-07-31T04:51:16.654Z,21.88
2022-07-31T04:53:43.111Z,21.88
2022-07-31T04:56:09.652Z,21.88
2022-07-31T04:58:36.100Z,21.89
2022-07-31T05:01:04.032Z,21.88
2022-07-31T05:03:30.542Z,21.86
2022-07-31T05:05:57.039Z,21.82
2022-07-31T05:08:23.550Z,21.83
2022-07-31T05:10:49.994Z,21.83
2022-07-31T05:13:16.710Z,21.77
2022-07-31T05:15:43.227Z,21.78
2022-07-31T05:18:11.007Z,21.70
2022-07-31T05:20:37.468Z,21.77
2022-07-31T05:23:06.504Z,21.79
2022-07-31T05:25:33.463Z,21.79
2022-07-31T05:28:00.037Z,21.78
2022-07-31T05:30:30.583Z,21.79
2022-07-31T05:32:57.384Z,21.80
2022-07-31T05:35:25.074Z,21.81
2022-07-31T05:37:51.523Z,21.76
2022-07-31T05:40:18.023Z,21.77
2022-07-31T05:42:44.518Z,21.75
2022-07-31T05:45:11.052Z,21.72
2022-07-31T05:47:40.697Z,21.73
2022-07-31T05:50:08.254Z,21.76
2022-07-31T05:52:36.041Z,21.77
2022-07-31T05:55:02.572Z,21.79
2022-07-31T05:57:33.924Z,21.78
2022-07-31T06:00:01.022Z,21.73
2022-07-31T06:02:30.434Z,21.67
2022-07-31T06:04:56.983Z,21.70
2022-07-31T06:07:23.551Z,21.73
2022-07-31T06:09:51.324Z,21.75
2022-07-31T06:12:18.146Z,21.74
2022-07-31T06:14:44.635Z,21.74
2022-07-31T06:17:11.454Z,21.74
2022-07-31T06:19:38.035Z,21.73
2022-07-31T06:22:04.751Z,21.75
2022-07-31T06:24:31.730Z,21.66
2022-07-31T06:27:02.161Z,21.61
2022-07-31T06:29:41.607Z,21.67
2022-07-31T06:32:09.089Z,21.70
2022-07-31T06:34:36.017Z,21.71
2022-07-31T06:37:02.577Z,21.65
2022-07-31T06:39:54.378Z,21.66
2022-07-31T06:42:19.708Z,21.66
2022-07-31T06:44:46.608Z,21.66
2022-07-31T06:47:13.871Z,21.62
2022-07-31T06:49:42.794Z,21.58
2022-07-31T06:52:09.405Z,21.64
2022-07-31T06:54:35.994Z,21.67
2022-07-31T06:57:02.766Z,21.67
2022-07-31T06:59:40.165Z,21.64
2022-07-31T07:02:08.291Z,21.68
2022-07-31T07:04:56.365Z,21.69
2022-07-31T07:07:21.973Z,21.72
2022-07-31T07:09:48.447Z,21.73
2022-07-31T07:12:16.985Z,21.72
2022-07-31T07:14:44.898Z,21.72
2022-07-31T07:17:11.348Z,21.71
2022-07-31T07:19:40.387Z,21.70
2022-07-31T07:22:07.068Z,21.66
2022-07-31T07:24:33.853Z,21.66
2022-07-31T07:27:00.359Z,21.62
2022-07-31T07:29:26.876Z,21.60
2022-07-31T07:31:54.584Z,21.65
2022-07-31T07:34:21.026Z,21.67
2022-07-31T07:36:47.648Z,21.65
2022-07-31T07:39:14.237Z,21.66
2022-07-31T07:41:40.720Z,21.67
2022-07-31T07:44:07.273Z,21.67
2022-07-31T07:46:34.350Z,21.64
2022-07-31T07:49:03.782Z,21.68
2022-07-31T07:51:30.268Z,21.66
2022-07-31T07:53:56.758Z,21.69
2022-07-31T07:56:23.237Z,21.70
2022-07-31T07:58:49.690Z,21.70
2022-07-31T08:01:17.011Z,21.70
2022-07-31T08:03:49.764Z,21.70
2022-07-31T08:06:20.563Z,21.70
2022-07-31T08:08:47.148Z,21.68
2022-07-31T08:11:16.796Z,21.70
2022-07-31T08:13:49.260Z,21.72
2022-07-31T08:16:16.942Z,21.72
2022-07-31T08:18:43.433Z,21.74
2022-07-31T08:21:09.909Z,21.72
2022-07-31T08:23:37.604Z,21.74
2022-07-31T08:26:04.291Z,21.74
2022-07-31T08:28:33.047Z,21.74
2022-07-31T08:31:00.331Z,21.73
2022-07-31T08:33:26.853Z,21.74
2022-07-31T08:35:53.349Z,21.74
2022-07-31T08:38:20.245Z,21.72
2022-07-31T08:40:48.083Z,21.73
2022-07-31T08:44:01.725Z,21.73
2022-07-31T08:46:01.880Z,21.75
2022-07-31T08:48:31.591Z,21.73
2022-07-31T08:50:59.531Z,21.75
2022-07-31T08:53:27.212Z,21.76
2022-07-31T08:55:57.621Z,21.74
2022-07-31T08:58:24.883Z,21.76
2022-07-31T09:00:51.772Z,21.77
2022-07-31T09:03:18.489Z,21.77
2022-07-31T09:05:45.032Z,21.78
2022-07-31T09:08:14.595Z,21.76
2022-07-31T09:10:46.322Z,21.77
2022-07-31T09:13:18.521Z,21.76
2022-07-31T09:15:45.327Z,21.76
2022-07-31T09:18:20.214Z,21.74
2022-07-31T09:20:54.514Z,21.75
2022-07-31T09:23:21.100Z,21.74
2022-07-31T09:25:53.000Z,21.75
2022-07-31T09:28:24.990Z,21.75
2022-07-31T09:30:55.653Z,21.73
2022-07-31T09:33:23.062Z,21.71
2022-07-31T09:35:50.554Z,21.71
2022-07-31T09:38:18.085Z,21.71
2022-07-31T09:40:56.795Z,21.71
2022-07-31T09:43:25.913Z,21.74
2022-07-31T09:46:00.050Z,21.72
2022-07-31T09:48:28.825Z,21.73
2022-07-31T09:50:57.241Z,21.73
2022-07-31T09:53:24.420Z,21.72
2022-07-31T09:55:51.314Z,21.72
2022-07-31T09:58:18.113Z,21.68
2022-07-31T10:00:46.618Z,21.72
2022-07-31T10:03:14.316Z,21.73
2022-07-31T10:05:42.128Z,21.72
2022-07-31T10:08:10.045Z,21.68
2022-07-31T10:10:37.330Z,21.67
2022-07-31T10:13:09.816Z,21.69
2022-07-31T10:15:38.283Z,21.70
2022-07-31T10:18:08.074Z,21.71
2022-07-31T10:20:37.342Z,21.73
2022-07-31T10:23:09.100Z,21.73
2022-07-31T10:25:38.353Z,21.74
2022-07-31T10:28:06.940Z,21.71
2022-07-31T10:30:33.414Z,21.71
2022-07-31T10:33:02.852Z,21.71
2022-07-31T10:35:30.794Z,21.72
2022-07-31T10:38:03.662Z,21.72
2022-07-31T10:40:36.458Z,21.71
2022-07-31T10:43:17.686Z,21.73
2022-07-31T10:45:47.137Z,21.73
2022-07-31T10:48:13.849Z,21.73
2022-07-31T10:50:41.820Z,21.74
2022-07-31T10:53:09.366Z,21.74
2022-07-31T10:55:36.055Z,21.73
2022-07-31T10:58:11.123Z,21.75
2022-07-31T11:00:38.363Z,21.75
2022-07-31T11:03:14.135Z,21.74
2022-07-31T11:06:01.746Z,21.75
2022-07-31T11:08:40.680Z,21.77
2022-07-31T11:11:07.268Z,21.75
2022-07-31T11:13:44.731Z,21.76
2022-07-31T11:16:11.440Z,21.78
2022-07-31T11:18:38.062Z,21.76
2022-07-31T11:21:36.040Z,21.77
2022-07-31T11:24:03.276Z,21.77
2022-07-31T11:26:40.997Z,21.77
2022-07-31T11:30:01.488Z,21.78
2022-07-31T11:31:55.298Z,21.76
2022-07-31T11:34:21.849Z,21.76
2022-07-31T11:36:51.706Z,21.77
2022-07-31T11:39:18.427Z,21.78
2022-07-31T11:41:45.675Z,21.78
2022-07-31T11:44:12.289Z,21.77
2022-07-31T11:46:39.044Z,21.77
2022-07-31T11:49:05.800Z,21.77
2022-07-31T11:51:32.487Z,21.80
2022-07-31T11:54:00.277Z,21.79
2022-07-31T11:56:27.558Z,21.79
2022-07-31T11:58:55.767Z,21.80
2022-07-31T12:01:25.150Z,21.80
2022-07-31T12:03:52.165Z,21.82
2022-07-31T12:06:19.985Z,21.81
2022-07-31T12:08:47.567Z,21.83
2022-07-31T12:11:18.030Z,21.83
2022-07-31T12:13:45.791Z,21.83
2022-07-31T12:16:12.273Z,21.84
2022-07-31T12:18:47.472Z,21.85
2022-07-31T12:21:14.883Z,21.85
2022-07-31T12:23:42.454Z,21.86
2022-07-31T12:26:12.348Z,21.85
2022-07-31T12:28:40.478Z,21.86
2022-07-31T12:31:06.967Z,21.85
2022-07-31T12:33:40.289Z,21.86
2022-07-31T12:36:12.106Z,21.87
2022-07-31T12:38:44.902Z,21.89
2022-07-31T12:41:14.346Z,21.89
2022-07-31T12:43:50.769Z,21.89
2022-07-31T12:46:18.747Z,21.88
2022-07-31T12:48:46.255Z,21.90
2022-07-31T12:51:13.000Z,21.91
2022-07-31T12:53:39.475Z,21.90
2022-07-31T12:56:10.967Z,21.91
2022-07-31T12:58:37.448Z,21.92
2022-07-31T13:01:05.258Z,21.91
2022-07-31T13:03:38.966Z,21.92
2022-07-31T13:06:12.978Z,21.92
2022-07-31T13:08:39.474Z,21.94
2022-07-31T13:11:05.961Z,21.94
2022-07-31T13:13:32.454Z,21.93
2022-07-31T13:15:58.910Z,21.95
2022-07-31T13:18:26.707Z,21.95
2022-07-31T13:20:53.245Z,21.95
2022-07-31T13:23:19.818Z,21.95
2022-07-31T13:25:46.280Z,21.97
2022-07-31T13:28:12.738Z,21.98
2022-07-31T13:30:39.145Z,21.98
2022-07-31T13:33:05.626Z,21.98
2022-07-31T13:35:33.475Z,21.98
2022-07-31T13:37:59.925Z,21.96
2022-07-31T13:40:26.849Z,21.97
2022-07-31T13:42:53.316Z,21.96
2022-07-31T13:45:19.790Z,21.97
2022-07-31T13:47:51.130Z,21.98
2022-07-31T13:50:18.773Z,21.98
2022-07-31T13:52:46.637Z,21.98
2022-07-31T13:55:13.205Z,21.99
2022-07-31T13:57:39.683Z,21.99
2022-07-31T14:00:07.123Z,22.01
2022-07-31T14:02:33.627Z,22.01
2022-07-31T14:05:00.150Z,22.03
2022-07-31T14:07:47.899Z,22.04
2022-07-31T14:10:20.208Z,22.04
2022-07-31T14:12:47.630Z,22.04
2022-07-31T14:15:14.290Z,22.06
2022-07-31T14:17:40.804Z,22.06
2022-07-31T14:20:08.244Z,22.07
2022-07-31T14:22:34.727Z,22.10
2022-07-31T14:25:01.355Z,22.10
2022-07-31T14:27:29.253Z,22.11
2022-07-31T14:29:55.830Z,22.11
2022-07-31T14:32:22.612Z,22.11
2022-07-31T14:34:49.173Z,22.13
2022-07-31T14:37:15.786Z,22.15
2022-07-31T14:39:42.973Z,22.16
2022-07-31T14:42:10.133Z,22.18
2022-07-31T14:44:38.388Z,22.17
2022-07-31T14:47:05.184Z,22.19
2022-07-31T14:50:07.111Z,22.19
2022-07-31T14:52:18.679Z,22.19
2022-07-31T14:54:45.315Z,22.20
2022-07-31T14:57:12.039Z,22.20
2022-07-31T14:59:39.986Z,22.23
2022-07-31T15:02:06.658Z,22.23
2022-07-31T15:04:33.120Z,22.25
2022-07-31T15:07:19.045Z,22.24
2022-07-31T15:09:46.389Z,22.25
2022-07-31T15:12:12.872Z,22.25
2022-07-31T15:14:40.609Z,22.25
2022-07-31T15:17:07.453Z,22.27
2022-07-31T15:19:34.198Z,22.28
2022-07-31T15:22:16.048Z,22.32
2022-07-31T15:24:48.274Z,22.29
2022-07-31T15:27:16.172Z,22.30
2022-07-31T15:30:05.126Z,22.33
2022-07-31T15:32:30.428Z,22.36
2022-07-31T15:34:56.878Z,22.34
2022-07-31T15:37:23.549Z,22.36
2022-07-31T15:40:01.567Z,22.36
2022-07-31T15:42:30.349Z,22.36
2022-07-31T15:44:58.168Z,22.33
2022-07-31T15:47:24.642Z,22.37
2022-07-31T15:49:51.104Z,22.38
2022-07-31T15:52:19.318Z,22.40
2022-07-31T15:54:46.264Z,22.38
2022-07-31T15:57:12.717Z,22.42
2022-07-31T15:59:39.711Z,22.39
2022-07-31T16:02:07.719Z,22.40
2022-07-31T16:04:34.245Z,22.42
2022-07-31T16:07:00.710Z,22.41
2022-07-31T16:10:04.133Z,22.42
2022-07-31T16:12:33.584Z,22.42
2022-07-31T16:15:00.207Z,22.41
2022-07-31T16:17:28.074Z,22.42
2022-07-31T16:19:54.506Z,22.41
2022-07-31T16:22:21.007Z,22.43
2022-07-31T16:24:47.439Z,22.44
2022-07-31T16:27:13.915Z,22.44
2022-07-31T16:30:01.181Z,22.44
2022-07-31T16:32:28.401Z,22.46
2022-07-31T16:34:58.473Z,22.45
2022-07-31T16:37:50.448Z,22.47
2022-07-31T16:40:29.267Z,22.45
2022-07-31T16:42:58.366Z,22.45
2022-07-31T16:45:24.845Z,22.48
2022-07-31T16:47:52.714Z,22.48
2022-07-31T16:50:19.251Z,22.49
2022-07-31T16:52:45.724Z,22.49
2022-07-31T16:55:12.158Z,22.48
2022-07-31T16:57:38.634Z,22.48
2022-07-31T17:00:06.808Z,22.49
2022-07-31T17:02:33.409Z,22.50
2022-07-31T17:05:01.144Z,22.49
2022-07-31T17:07:27.639Z,22.50
2022-07-31T17:09:54.117Z,22.49
2022-07-31T17:12:20.565Z,22.52
2022-07-31T17:14:47.079Z,22.51
2022-07-31T17:17:13.551Z,22.50
2022-07-31T17:19:45.881Z,22.51
2022-07-31T17:22:17.595Z,22.49
2022-07-31T17:24:45.152Z,22.49
2022-07-31T17:27:11.593Z,22.49
2022-07-31T17:29:38.580Z,22.50
2022-07-31T17:32:05.698Z,22.51
2022-07-31T17:34:32.299Z,22.52
2022-07-31T17:36:58.781Z,22.53
2022-07-31T17:39:30.690Z,22.54
2022-07-31T17:41:58.006Z,22.56
2022-07-31T17:44:24.513Z,22.57
2022-07-31T17:46:52.110Z,22.61
2022-07-31T17:49:20.256Z,22.59
2022-07-31T17:51:59.031Z,22.60
2022-07-31T17:54:28.839Z,22.63
2022-07-31T17:56:55.526Z,22.65
2022-07-31T17:59:22.034Z,22.66
2022-07-31T18:01:51.826Z,22.63
2022-07-31T18:04:19.086Z,22.63
2022-07-31T18:06:45.636Z,22.62
2022-07-31T18:09:12.121Z,22.61
2022-07-31T18:11:39.869Z,22.61
2022-07-31T18:14:06.336Z,22.60
2022-07-31T18:16:33.406Z,22.60
2022-07-31T18:18:59.866Z,22.59
2022-07-31T18:21:26.358Z,22.59
2022-07-31T18:23:52.809Z,22.58
2022-07-31T18:26:19.390Z,22.57
2022-07-31T18:28:47.146Z,22.56
2022-07-31T18:31:34.409Z,22.57
2022-07-31T18:34:00.122Z,22.56
2022-07-31T18:36:26.804Z,22.55
2022-07-31T18:38:53.372Z,22.54
2022-07-31T18:41:19.893Z,22.55
2022-07-31T18:43:47.835Z,22.53
2022-07-31T18:46:14.462Z,22.53
2022-07-31T18:48:40.993Z,22.54
2022-07-31T18:51:07.532Z,22.52
2022-07-31T18:53:34.065Z,22.51
2022-07-31T18:56:00.584Z,22.49
2022-07-31T18:58:27.084Z,22.49
2022-07-31T19:00:55.508Z,22.48
2022-07-31T19:03:22.334Z,22.48
2022-07-31T19:05:48.860Z,22.47
2022-07-31T19:08:15.474Z,22.47
2022-07-31T19:10:41.991Z,22.45
2022-07-31T19:13:08.471Z,22.45
2022-07-31T19:15:46.093Z,22.44
2022-07-31T19:18:14.169Z,22.45
2022-07-31T19:20:58.935Z,22.44
2022-07-31T19:23:28.480Z,22.44
2022-07-31T19:26:02.817Z,22.43
2022-07-31T19:28:31.129Z,22.41
2022-07-31T19:30:58.230Z,22.42
2022-07-31T19:33:26.097Z,22.40
2022-07-31T19:35:58.624Z,22.39
2022-07-31T19:38:27.453Z,22.39
2022-07-31T19:40:54.258Z,22.39
2022-07-31T19:43:20.706Z,22.35
2022-07-31T19:46:09.350Z,22.33
2022-07-31T19:48:35.113Z,22.35
2022-07-31T19:51:01.617Z,22.33
2022-07-31T19:53:28.081Z,22.35
2022-07-31T19:55:54.595Z,22.33
2022-07-31T19:58:21.030Z,22.31
2022-07-31T20:00:47.660Z,22.31
2022-07-31T20:03:14.267Z,22.30
2022-07-31T20:05:42.178Z,22.30
2022-07-31T20:08:08.626Z,22.29
2022-07-31T20:10:35.211Z,22.28
2022-07-31T20:13:01.744Z,22.28
2022-07-31T20:15:51.098Z,22.27
2022-07-31T20:18:27.486Z,22.26
2022-07-31T20:20:58.488Z,22.24
2022-07-31T20:23:24.984Z,22.25
2022-07-31T20:25:51.589Z,22.24
2022-07-31T20:28:18.049Z,22.24
2022-07-31T20:30:44.562Z,22.25
2022-07-31T20:33:11.320Z,22.22
2022-07-31T20:35:48.515Z,22.24
2022-07-31T20:38:17.503Z,22.20
2022-07-31T20:40:52.792Z,22.22
2022-07-31T20:43:22.563Z,22.20
2022-07-31T20:45:49.029Z,22.20
2022-07-31T20:48:15.648Z,22.20
2022-07-31T20:50:42.132Z,22.18
2022-07-31T20:53:09.600Z,22.18
2022-07-31T20:55:37.333Z,22.18
2022-07-31T20:58:03.842Z,22.19
2022-07-31T21:00:30.335Z,22.17
2022-07-31T21:02:56.800Z,22.17
2022-07-31T21:05:26.746Z,22.15
2022-07-31T21:07:53.762Z,22.15
2022-07-31T21:10:20.204Z,22.16
2022-07-31T21:12:48.081Z,22.14
2022-07-31T21:15:40.842Z,22.14
2022-07-31T21:18:01.084Z,22.14
2022-07-31T21:20:49.734Z,22.14
2022-07-31T21:23:16.691Z,22.12
2022-07-31T21:25:43.550Z,22.11
2022-07-31T21:28:12.250Z,22.11
2022-07-31T21:30:40.261Z,22.08
2022-07-31T21:33:08.345Z,22.09
2022-07-31T21:35:36.850Z,22.08
2022-07-31T21:38:04.832Z,22.08
2022-07-31T21:40:32.071Z,22.09
2022-07-31T21:42:59.348Z,22.08
2022-07-31T21:45:31.366Z,22.09
2022-07-31T21:48:15.382Z,22.09
2022-07-31T21:50:43.260Z,22.09
2022-07-31T21:53:09.927Z,22.08
2022-07-31T21:55:37.294Z,22.09
2022-07-31T21:58:04.135Z,22.07
2022-07-31T22:00:32.428Z,22.06
2022-07-31T22:02:58.894Z,22.06
2022-07-31T22:05:25.572Z,22.05
2022-07-31T22:07:52.063Z,22.01
2022-07-31T22:10:19.646Z,22.00
2022-07-31T22:12:46.487Z,21.99
2022-07-31T22:15:15.473Z,21.99
2022-07-31T22:17:43.984Z,22.00
2022-07-31T22:20:11.301Z,21.98
2022-07-31T22:22:38.982Z,22.01
2022-07-31T22:25:06.706Z,22.01
2022-07-31T22:27:33.632Z,22.00
2022-07-31T22:30:00.946Z,21.98
2022-07-31T22:32:27.655Z,21.97
2022-07-31T22:34:55.482Z,21.99
2022-07-31T22:37:23.447Z,21.97
2022-07-31T22:39:51.082Z,21.95
2022-07-31T22:42:17.873Z,21.93
2022-07-31T22:44:44.445Z,21.93
2022-07-31T22:47:11.580Z,21.91
2022-07-31T22:49:38.684Z,21.93
2022-07-31T22:52:07.129Z,21.91
2022-07-31T22:54:33.835Z,21.86
2022-07-31T22:57:00.291Z,21.88
2022-07-31T22:59:26.772Z,21.90
2022-07-31T23:01:53.289Z,21.91
2022-07-31T23:04:19.825Z,21.92
2022-07-31T23:06:46.305Z,21.93
2022-07-31T23:09:14.244Z,21.95
2022-07-31T23:11:40.805Z,21.95
2022-07-31T23:14:07.299Z,21.95
2022-07-31T23:16:33.861Z,21.95
2022-07-31T23:19:00.433Z,21.92
2022-07-31T23:21:27.035Z,21.93
2022-07-31T23:23:53.796Z,21.93
2022-07-31T23:26:23.351Z,21.91
2022-07-31T23:28:50.740Z,21.91
2022-07-31T23:31:18.034Z,21.89
2022-07-31T23:33:45.372Z,21.90
2022-07-31T23:36:12.504Z,21.79
2022-07-31T23:38:39.651Z,21.85
2022-07-31T23:41:06.159Z,21.85
2022-07-31T23:43:33.952Z,21.88
2022-07-31T23:46:00.506Z,21.89
2022-07-31T23:48:30.000Z,21.89
2022-07-31T23:50:57.721Z,21.88
2022-07-31T23:53:24.287Z,21.86
2022-07-31T23:55:51.945Z,21.88
2022-07-31T23:58:18.453Z,21.88
